Time;durP1;ratioP1;P1;durP2;ratioP2;P2;SDS_P1;SDS_P2;PMS_P1;PMS_P2;Temp;Humidity;BMP_temperature;BMP_pressure;BME280_temperature;BME280_humidity;BME280_pressure;Samples;Min_cycle;Max_cycle;Signal;HPM_P1;HPM_P2
2022/11/19 00:02:01;;;;;;;0.10;0.10;;;1.20;99.90;-0.70;95081.00;;;;5032210;28;20199;-73
2022/11/19 00:04:29;;;;;;;0.10;0.10;;;1.20;99.90;-0.70;95134.00;;;;5032280;28;20225;-73
2022/11/19 00:06:57;;;;;;;0.20;0.20;;;1.20;99.90;-0.80;95067.00;;;;5027557;28;20702;-73
2022/11/19 00:09:27;;;;;;;0.20;0.20;;;1.20;99.90;-0.80;95104.00;;;;5028823;28;20195;-73
2022/11/19 00:14:41;;;;;;;0.20;0.20;;;1.10;99.90;-0.70;95070.00;;;;5027919;28;20250;-73
2022/11/19 00:17:09;;;;;;;0.17;0.17;;;1.10;99.90;-0.70;95101.00;;;;5023243;28;20697;-73
2022/11/19 00:19:37;;;;;;;0.10;0.10;;;1.20;99.90;-0.70;95176.00;;;;5014786;28;20206;-74
2022/11/19 00:22:05;;;;;;;0.20;0.20;;;1.20;99.90;-0.70;95214.00;;;;4995051;28;20281;-74
2022/11/19 00:24:35;;;;;;;0.20;0.20;;;1.20;99.90;-0.70;95192.00;;;;5020920;28;20290;-74
2022/11/19 00:27:03;;;;;;;0.20;0.20;;;1.20;99.90;-0.70;95247.00;;;;5029243;28;20207;-74
2022/11/19 00:29:31;;;;;;;0.20;0.20;;;1.20;99.90;-0.70;95225.00;;;;5012706;28;20218;-74
2022/11/19 00:31:59;;;;;;;0.10;0.10;;;1.10;99.90;-0.70;95188.00;;;;5027167;28;20194;-74
2022/11/19 00:34:28;;;;;;;0.20;0.20;;;1.20;99.90;-0.80;95179.00;;;;5030064;28;20261;-74
2022/11/19 00:36:56;;;;;;;0.10;0.10;;;1.10;99.90;-0.80;95251.00;;;;5017649;28;20196;-74
2022/11/19 00:39:24;;;;;;;0.10;0.10;;;1.10;99.90;-0.70;95212.00;;;;5026218;28;20230;-73
2022/11/19 00:41:53;;;;;;;0.20;0.20;;;1.10;99.90;-0.80;95225.00;;;;5013636;28;20250;-73
2022/11/19 00:44:21;;;;;;;0.10;0.10;;;1.10;99.90;-0.80;95316.00;;;;5021630;28;20219;-73
2022/11/19 00:46:49;;;;;;;0.10;0.10;;;1.10;99.90;-0.80;95215.00;;;;5022424;28;20192;-73
2022/11/19 00:49:17;;;;;;;0.20;0.20;;;1.10;99.90;-0.80;95244.00;;;;5012112;28;20230;-73
2022/11/19 00:51:46;;;;;;;0.10;0.10;;;1.10;99.90;-0.90;95219.00;;;;5020242;28;20529;-73
2022/11/19 00:54:14;;;;;;;0.20;0.20;;;1.00;99.90;-0.90;95209.00;;;;5026100;28;20234;-73
2022/11/19 00:56:43;;;;;;;0.10;0.10;;;1.00;99.90;-0.90;95338.00;;;;5036565;28;20199;-72
2022/11/19 00:59:12;;;;;;;0.10;0.10;;;1.00;99.90;-1.00;95184.00;;;;5023320;28;20223;-73
2022/11/19 01:01:40;;;;;;;0.20;0.20;;;1.00;99.90;-0.90;95126.00;;;;5039199;28;20240;-73
2022/11/19 01:04:08;;;;;;;0.10;0.10;;;1.00;99.90;-1.00;95125.00;;;;5036899;28;20626;-71
2022/11/19 01:06:37;;;;;;;0.15;0.15;;;1.00;99.90;-0.90;95166.00;;;;5046830;28;20191;-71
2022/11/19 01:09:06;;;;;;;0.10;0.10;;;1.00;99.90;-0.80;95445.00;;;;5029833;28;20235;-71
2022/11/19 01:11:37;;;;;;;0.20;0.20;;;1.00;99.90;-1.20;95370.00;;;;5029591;28;20262;-71
2022/11/19 01:14:07;;;;;;;0.10;0.10;;;1.00;99.90;-0.90;95168.00;;;;5041380;28;20226;-71
2022/11/19 01:16:39;;;;;;;0.20;0.20;;;1.00;99.90;-0.90;95151.00;;;;5029971;28;20686;-72
2022/11/19 01:19:10;;;;;;;0.10;0.10;;;1.00;99.90;-1.00;95150.00;;;;5021294;28;20227;-72
2022/11/19 01:21:38;;;;;;;0.15;0.15;;;0.90;99.90;-1.00;95126.00;;;;5021359;28;20207;-72
2022/11/19 01:24:07;;;;;;;0.10;0.10;;;0.90;99.90;-1.00;95237.00;;;;5031392;28;20218;-72
2022/11/19 01:26:35;;;;;;;0.10;0.10;;;0.90;99.90;-1.00;95125.00;;;;5031543;28;20273;-72
2022/11/19 01:29:05;;;;;;;0.20;0.20;;;0.90;99.90;-1.00;95229.00;;;;5030770;28;20226;-72
2022/11/19 01:31:34;;;;;;;0.20;0.20;;;0.90;99.90;-1.10;95167.00;;;;5031021;28;20195;-72
2022/11/19 01:34:03;;;;;;;0.15;0.15;;;0.90;99.90;-1.00;95233.00;;;;5031245;28;20705;-72
2022/11/19 01:36:31;;;;;;;0.20;0.20;;;0.90;99.90;-1.10;95153.00;;;;5030750;28;20654;-71
2022/11/19 01:38:59;;;;;;;0.20;0.20;;;0.80;99.90;-1.10;95248.00;;;;5027947;28;20713;-71
2022/11/19 01:41:30;;;;;;;0.10;0.10;;;0.80;99.90;-1.10;95196.00;;;;5034975;28;20614;-72
2022/11/19 01:44:01;;;;;;;0.10;0.10;;;0.80;99.90;-1.10;95217.00;;;;5030876;28;20783;-72
2022/11/19 01:46:32;;;;;;;0.10;0.10;;;0.80;99.90;-1.20;95226.00;;;;5030864;28;20286;-71
2022/11/19 01:49:08;;;;;;;0.20;0.20;;;0.70;99.90;-1.20;95283.00;;;;5029868;28;20210;-73
2022/11/19 01:51:40;;;;;;;0.20;0.20;;;0.70;99.90;-1.10;95285.00;;;;5025747;28;20199;-72
2022/11/19 01:54:14;;;;;;;0.10;0.10;;;0.80;99.90;-1.20;95270.00;;;;5030371;28;20222;-72
2022/11/19 01:56:42;;;;;;;0.15;0.15;;;0.70;99.90;-1.20;95274.00;;;;5030722;28;20199;-72
2022/11/19 01:59:15;;;;;;;0.20;0.20;;;0.80;99.90;-1.10;95293.00;;;;5029732;28;20233;-72
2022/11/19 02:01:45;;;;;;;0.10;0.10;;;0.80;99.90;-1.20;95285.00;;;;5031025;28;20202;-72
2022/11/19 02:04:18;;;;;;;0.20;0.20;;;0.80;99.90;-1.30;95239.00;;;;5022552;28;20237;-72
2022/11/19 02:06:47;;;;;;;0.13;0.13;;;0.70;99.90;-1.20;95261.00;;;;5030648;28;20249;-72
2022/11/19 02:09:16;;;;;;;0.20;0.20;;;0.80;99.90;-1.20;95219.00;;;;5016196;28;20204;-73
2022/11/19 02:12:12;;;;;;;0.20;0.20;;;0.70;99.90;-1.20;95248.00;;;;5017049;28;20266;-72
2022/11/19 02:15:15;;;;;;;0.20;0.20;;;0.70;99.90;-1.20;95261.00;;;;5029204;28;20222;-73
2022/11/19 02:18:03;;;;;;;0.10;0.10;;;0.70;99.90;-1.30;95241.00;;;;5030420;28;20207;-73
2022/11/19 02:20:46;;;;;;;0.20;0.20;;;0.70;99.90;-1.30;95294.00;;;;5014928;28;20195;-72
2022/11/19 02:23:47;;;;;;;0.20;0.20;;;0.70;99.90;-1.30;95285.00;;;;5018970;28;20581;-72
2022/11/19 02:27:15;;;;;;;0.20;0.20;;;0.70;99.90;-1.30;95246.00;;;;5032737;28;20207;-72
2022/11/19 02:30:04;;;;;;;0.20;0.20;;;0.70;99.90;-1.30;95248.00;;;;5022376;28;20621;-73
2022/11/19 02:32:37;;;;;;;0.10;0.10;;;0.60;99.90;-1.40;95255.00;;;;5020495;28;20227;-73
2022/11/19 02:35:18;;;;;;;0.13;0.13;;;0.60;99.90;-1.50;95195.00;;;;5033730;28;20226;-72
2022/11/19 02:37:57;;;;;;;0.10;0.10;;;0.50;99.90;-1.40;95269.00;;;;5013751;28;20207;-72
2022/11/19 02:40:29;;;;;;;0.15;0.15;;;0.50;99.90;-1.30;95253.00;;;;5014414;28;20737;-72
2022/11/19 02:43:11;;;;;;;0.20;0.20;;;0.60;99.90;-1.30;95191.00;;;;5014936;28;20211;-72
2022/11/19 02:45:46;;;;;;;0.10;0.10;;;0.60;99.90;-1.30;95232.00;;;;5031021;28;20203;-72
2022/11/19 02:48:21;;;;;;;0.20;0.20;;;0.60;99.90;-1.30;95239.00;;;;5033424;28;20667;-72
2022/11/19 02:50:53;;;;;;;0.20;0.20;;;0.60;99.90;-1.30;95227.00;;;;5033618;28;20213;-72
2022/11/19 02:53:22;;;;;;;0.20;0.20;;;0.60;99.90;-1.40;95226.00;;;;5025897;28;20733;-72
2022/11/19 03:04:30;;;;;;;0.20;0.20;;;0.60;99.90;-1.30;95205.00;;;;5030895;28;20227;-71
2022/11/19 03:07:06;;;;;;;0.20;0.20;;;0.60;99.90;-1.30;95238.00;;;;5033614;28;20195;-71
2022/11/19 03:09:40;;;;;;;0.20;0.20;;;0.60;99.90;-1.40;95229.00;;;;5032453;28;20210;-71
2022/11/19 03:12:18;;;;;;;0.20;0.20;;;0.60;99.90;-1.40;95210.00;;;;5020402;28;20785;-71
2022/11/19 03:18:00;;;;;;;0.17;0.17;;;0.60;99.90;-1.40;95272.00;;;;5028160;28;20204;-71
2022/11/19 03:20:38;;;;;;;0.20;0.20;;;0.60;99.90;-1.30;95271.00;;;;5026709;28;20207;-71
2022/11/19 03:23:15;;;;;;;0.20;0.20;;;0.60;99.90;-1.30;95140.00;;;;5026861;28;20234;-71
2022/11/19 03:25:50;;;;;;;0.20;0.20;;;0.60;99.90;-1.20;95239.00;;;;5023440;28;20218;-73
2022/11/19 03:28:25;;;;;;;0.20;0.20;;;0.70;99.90;-1.20;95240.00;;;;5017025;28;20678;-71
2022/11/19 03:30:58;;;;;;;0.13;0.13;;;0.70;99.90;-1.20;95296.00;;;;5026510;28;20199;-71
2022/11/19 03:33:33;;;;;;;0.20;0.20;;;0.70;99.90;-1.20;95278.00;;;;5014530;28;20301;-71
2022/11/19 03:36:07;;;;;;;0.20;0.20;;;0.70;99.90;-1.30;95143.00;;;;5015830;28;20191;-71
2022/11/19 03:38:42;;;;;;;0.20;0.20;;;0.70;99.90;-1.30;95229.00;;;;5019918;28;20625;-70
2022/11/19 03:41:15;;;;;;;0.20;0.20;;;0.60;99.90;-1.30;95192.00;;;;4997747;28;20305;-71
2022/11/19 03:43:50;;;;;;;0.20;0.20;;;0.60;99.90;-1.40;95222.00;;;;5014774;28;20220;-72
2022/11/19 03:46:22;;;;;;;0.20;0.20;;;0.50;99.90;-1.50;95207.00;;;;5013797;28;20592;-71
2022/11/19 03:48:55;;;;;;;0.20;0.20;;;0.50;99.90;-1.40;95228.00;;;;5016831;28;20666;-71
2022/11/19 03:51:35;;;;;;;0.20;0.20;;;0.60;99.90;-1.30;95288.00;;;;5035383;28;20257;-71
2022/11/19 03:54:06;;;;;;;0.20;0.20;;;0.60;99.90;-1.30;95251.00;;;;5019381;28;20219;-71
2022/11/19 03:56:38;;;;;;;0.10;0.10;;;0.60;99.90;-1.30;95252.00;;;;5012686;28;20203;-71
2022/11/19 03:59:09;;;;;;;0.20;0.20;;;0.60;99.90;-1.30;95256.00;;;;5017944;28;20277;-71
2022/11/19 04:01:38;;;;;;;0.20;0.20;;;0.60;99.90;-1.30;95222.00;;;;5032877;28;20213;-72
2022/11/19 04:06:54;;;;;;;0.20;0.20;;;0.60;99.90;-1.40;95223.00;;;;5023589;28;20199;-72
2022/11/19 04:09:22;;;;;;;0.20;0.20;;;0.50;99.90;-1.40;95232.00;;;;5014581;28;20204;-72
2022/11/19 04:11:50;;;;;;;0.20;0.20;;;0.50;99.90;-1.40;95223.00;;;;5018461;28;20694;-72
2022/11/19 04:14:17;;;;;;;0.10;0.10;;;0.50;99.90;-1.40;95206.00;;;;5014248;28;20613;-72
2022/11/19 04:16:45;;;;;;;0.20;0.20;;;0.50;99.90;-1.40;95250.00;;;;5020094;28;20662;-71
2022/11/19 04:19:16;;;;;;;0.20;0.20;;;0.50;99.90;-1.30;95293.00;;;;5015927;28;20306;-71
2022/11/19 04:21:45;;;;;;;0.20;0.20;;;0.50;99.90;-1.30;95228.00;;;;5012512;28;20696;-71
2022/11/19 04:24:13;;;;;;;0.20;0.20;;;0.60;99.90;-1.40;95229.00;;;;5023243;28;20215;-71
2022/11/19 04:26:41;;;;;;;0.10;0.10;;;0.50;99.90;-1.40;95255.00;;;;5032182;28;20226;-72
2022/11/19 04:29:09;;;;;;;0.20;0.20;;;0.50;99.90;-1.40;95246.00;;;;5025723;28;20204;-71
2022/11/19 04:31:37;;;;;;;0.20;0.20;;;0.50;99.90;-1.40;95259.00;;;;5012369;28;20207;-71
2022/11/19 04:34:06;;;;;;;0.10;0.10;;;0.50;99.90;-1.50;95259.00;;;;5020232;28;20230;-71
2022/11/19 04:36:35;;;;;;;0.20;0.20;;;0.50;99.90;-1.40;95292.00;;;;5032394;28;20735;-71
2022/11/19 04:39:04;;;;;;;0.20;0.20;;;0.50;99.90;-1.40;95255.00;;;;5030374;28;20622;-71
2022/11/19 04:41:32;;;;;;;0.10;0.10;;;0.50;99.90;-1.50;95226.00;;;;5021158;28;20207;-71
2022/11/19 04:44:00;;;;;;;0.20;0.20;;;0.50;99.90;-1.40;95267.00;;;;5021646;28;20238;-71
2022/11/19 04:46:28;;;;;;;0.10;0.10;;;0.50;99.90;-1.40;95320.00;;;;5012026;28;20211;-71
2022/11/19 04:48:58;;;;;;;0.20;0.20;;;0.50;99.90;-1.40;95302.00;;;;5015513;28;20265;-73
2022/11/19 04:51:26;;;;;;;0.20;0.20;;;0.50;99.90;-1.40;95275.00;;;;5020953;28;20545;-71
2022/11/19 04:53:55;;;;;;;0.20;0.20;;;0.50;99.90;-1.40;95314.00;;;;5013725;28;20216;-71
2022/11/19 04:56:24;;;;;;;0.20;0.20;;;0.50;99.90;-1.50;95202.00;;;;5011854;28;20192;-71
2022/11/19 04:58:52;;;;;;;0.20;0.20;;;0.50;99.90;-1.50;95271.00;;;;5015171;28;20208;-71
2022/11/19 05:01:20;;;;;;;0.10;0.10;;;0.40;99.90;-1.50;95243.00;;;;5031668;28;20203;-71
2022/11/19 05:03:49;;;;;;;0.10;0.10;;;0.40;99.90;-1.50;95290.00;;;;5025121;28;20737;-71
2022/11/19 05:06:17;;;;;;;0.10;0.10;;;0.40;99.90;-1.50;95266.00;;;;5031476;28;20195;-71
2022/11/19 05:08:46;;;;;;;0.20;0.20;;;0.40;99.90;-1.50;95076.00;;;;5018352;28;20192;-71
2022/11/19 05:11:15;;;;;;;0.20;0.20;;;0.40;99.90;-1.50;95270.00;;;;5031546;28;20195;-70
2022/11/19 05:13:43;;;;;;;0.10;0.10;;;0.40;99.90;-1.60;95268.00;;;;5004943;28;20226;-71
2022/11/19 05:16:11;;;;;;;0.20;0.20;;;0.40;99.90;-1.60;95256.00;;;;5021423;28;20221;-71
2022/11/19 05:18:40;;;;;;;0.10;0.10;;;0.40;99.90;-1.60;95271.00;;;;5022970;28;20211;-71
2022/11/19 05:21:08;;;;;;;0.20;0.20;;;0.30;99.90;-1.50;95311.00;;;;5013099;28;20227;-71
2022/11/19 05:23:36;;;;;;;0.10;0.10;;;0.30;99.90;-1.60;95283.00;;;;5017520;28;20751;-71
2022/11/19 05:26:04;;;;;;;0.10;0.10;;;0.30;99.90;-1.50;95290.00;;;;5013259;28;20206;-71
2022/11/19 05:28:33;;;;;;;0.20;0.20;;;0.30;99.90;-1.50;95305.00;;;;5031104;28;20234;-71
2022/11/19 05:31:07;;;;;;;0.20;0.20;;;0.40;99.90;-1.50;95300.00;;;;5020144;28;20254;-71
2022/11/19 05:33:35;;;;;;;0.20;0.20;;;0.40;99.90;-1.50;95318.00;;;;5011789;28;20249;-71
2022/11/19 05:36:04;;;;;;;0.20;0.20;;;0.40;99.90;-1.60;95328.00;;;;5021761;28;20195;-71
2022/11/19 05:38:33;;;;;;;0.20;0.20;;;0.40;99.90;-1.80;95160.00;;;;5030600;28;20211;-71
2022/11/19 05:41:01;;;;;;;0.10;0.10;;;0.30;99.90;-1.70;95302.00;;;;5031249;28;20215;-71
2022/11/19 05:43:29;;;;;;;0.13;0.13;;;0.20;99.90;-1.70;95307.00;;;;5020623;28;20224;-71
2022/11/19 05:46:01;;;;;;;0.20;0.20;;;0.20;99.90;-1.70;95276.00;;;;5033111;28;20256;-71
2022/11/19 05:48:29;;;;;;;0.20;0.20;;;0.20;99.90;-1.80;95526.00;;;;5034659;28;20194;-71
2022/11/19 05:50:57;;;;;;;0.20;0.20;;;0.30;99.90;-1.60;95515.00;;;;5035076;28;20199;-71
2022/11/19 05:53:26;;;;;;;0.20;0.20;;;0.30;99.90;-1.60;95524.00;;;;5028357;28;20659;-71
2022/11/19 05:55:54;;;;;;;0.20;0.20;;;0.20;99.90;-1.60;95548.00;;;;5024409;28;20195;-71
2022/11/19 05:58:23;;;;;;;0.20;0.20;;;0.20;99.90;-1.60;95495.00;;;;5017772;28;20246;-72
2022/11/19 06:00:55;;;;;;;0.10;0.10;;;0.30;99.90;-1.60;95506.00;;;;5032627;28;20215;-71
2022/11/19 06:03:25;;;;;;;0.20;0.20;;;0.30;99.90;-1.60;95516.00;;;;5033966;28;20245;-71
2022/11/19 06:05:53;;;;;;;0.20;0.20;;;0.30;99.90;-1.60;95538.00;;;;5034416;28;20221;-72
2022/11/19 06:08:22;;;;;;;0.20;0.20;;;0.30;99.90;-1.70;95361.00;;;;5033939;28;20697;-72
2022/11/19 06:10:51;;;;;;;0.10;0.10;;;0.30;99.90;-1.80;95341.00;;;;5034304;28;20744;-72
2022/11/19 06:13:19;;;;;;;0.20;0.20;;;0.20;99.90;-1.80;95381.00;;;;5025089;28;20289;-72
2022/11/19 06:15:47;;;;;;;0.20;0.20;;;0.10;99.90;-2.00;95360.00;;;;5023319;28;20192;-72
2022/11/19 06:18:15;;;;;;;0.20;0.20;;;0.00;99.90;-2.10;95347.00;;;;5014063;28;20253;-72
2022/11/19 06:20:44;;;;;;;0.10;0.10;;;0.00;99.90;-2.50;95278.00;;;;5030916;28;20242;-72
2022/11/19 06:23:13;;;;;;;0.20;0.20;;;-0.10;99.90;-2.00;95328.00;;;;5028332;28;20690;-72
2022/11/19 06:25:41;;;;;;;0.10;0.10;;;-0.10;99.90;-1.90;95353.00;;;;5032156;28;20199;-72
2022/11/19 06:28:09;;;;;;;0.20;0.20;;;0.10;99.90;-1.80;95401.00;;;;5025389;28;20203;-72
2022/11/19 06:30:37;;;;;;;0.20;0.20;;;0.10;99.90;-1.80;95347.00;;;;5029758;28;20671;-71
2022/11/19 06:33:05;;;;;;;0.20;0.20;;;0.10;99.90;-1.80;95368.00;;;;5017649;28;20230;-71
2022/11/19 06:35:33;;;;;;;0.17;0.17;;;0.10;99.90;-1.90;95333.00;;;;5030451;28;20225;-71
2022/11/19 06:38:03;;;;;;;0.10;0.10;;;0.00;99.90;-1.80;95325.00;;;;5013572;28;20265;-71
2022/11/19 06:40:31;;;;;;;0.20;0.20;;;0.10;99.90;-1.80;95385.00;;;;5028248;28;20223;-72
2022/11/19 06:42:59;;;;;;;0.20;0.20;;;0.10;99.90;-1.70;95377.00;;;;5034022;28;20218;-72
2022/11/19 06:45:27;;;;;;;0.10;0.10;;;0.10;99.90;-2.00;95407.00;;;;5034126;28;20203;-72
2022/11/19 06:47:55;;;;;;;0.20;0.20;;;0.20;99.90;-1.70;95365.00;;;;5031907;28;20234;-72
2022/11/19 06:50:23;;;;;;;0.10;0.10;;;0.20;99.90;-1.70;95408.00;;;;5018211;28;20195;-72
2022/11/19 06:52:51;;;;;;;0.20;0.20;;;0.20;99.90;-1.80;95382.00;;;;5020077;28;20270;-71
2022/11/19 06:55:21;;;;;;;0.20;0.20;;;0.10;99.90;-1.90;95340.00;;;;5019882;28;20192;-71
2022/11/19 06:57:49;;;;;;;0.10;0.10;;;0.10;99.90;-1.90;95386.00;;;;5029114;28;20608;-73
2022/11/19 07:00:18;;;;;;;0.20;0.20;;;0.10;99.90;-1.80;95361.00;;;;5014102;28;20252;-73
2022/11/19 07:02:47;;;;;;;0.20;0.20;;;0.10;99.90;-1.80;95390.00;;;;5021330;28;20234;-75
2022/11/19 07:05:15;;;;;;;0.10;0.10;;;0.10;99.90;-1.70;95431.00;;;;5033635;28;20194;-75
2022/11/19 07:07:43;;;;;;;0.10;0.10;;;0.20;99.90;-1.70;95352.00;;;;5033133;28;20214;-74
2022/11/19 07:10:11;;;;;;;0.10;0.10;;;0.20;99.90;-1.60;95399.00;;;;5033596;28;20567;-74
2022/11/19 07:12:41;;;;;;;0.10;0.10;;;0.30;99.90;-1.50;95394.00;;;;5033344;28;20227;-75
2022/11/19 07:15:10;;;;;;;0.20;0.20;;;0.30;99.90;-1.50;95396.00;;;;5019124;28;20207;-74
2022/11/19 07:17:38;;;;;;;0.20;0.20;;;0.30;99.90;-1.50;95426.00;;;;5018034;28;20211;-75
2022/11/19 07:20:09;;;;;;;0.13;0.13;;;0.40;99.90;-1.70;95355.00;;;;5024768;28;20210;-75
2022/11/19 07:22:37;;;;;;;0.10;0.10;;;0.30;99.90;-1.60;95432.00;;;;5015148;28;20722;-74
2022/11/19 07:25:06;;;;;;;0.10;0.10;;;0.30;99.90;-1.50;95377.00;;;;5026785;28;20198;-74
2022/11/19 07:27:34;;;;;;;0.10;0.10;;;0.40;99.90;-1.50;95419.00;;;;5031674;28;20207;-74
2022/11/19 07:30:06;;;;;;;0.10;0.10;;;0.40;99.90;-1.50;95415.00;;;;5033312;28;20191;-73
2022/11/19 07:32:34;;;;;;;0.20;0.20;;;0.40;99.90;-1.40;95443.00;;;;5029626;28;20745;-74
2022/11/19 07:35:02;;;;;;;0.17;0.17;;;0.40;99.90;-1.40;95465.00;;;;5025854;28;20206;-74
2022/11/19 07:37:30;;;;;;;0.13;0.13;;;0.50;99.90;-1.40;95409.00;;;;5032127;28;20670;-74
2022/11/19 07:39:58;;;;;;;0.13;0.13;;;0.50;99.90;-1.30;95461.00;;;;5013068;28;20187;-75
2022/11/19 07:45:14;;;;;;;0.20;0.20;;;0.60;99.90;-1.30;95428.00;;;;5025982;28;20207;-76
2022/11/19 07:47:42;;;;;;;0.10;0.10;;;0.60;99.90;-1.50;95413.00;;;;5017090;28;20630;-76
2022/11/19 07:50:11;;;;;;;0.10;0.10;;;0.50;99.90;-1.90;95382.00;;;;5021795;28;20203;-75
2022/11/19 07:52:39;;;;;;;0.10;0.10;;;0.20;99.90;-1.80;95392.00;;;;5018244;28;20227;-75
2022/11/19 07:55:09;;;;;;;0.10;0.10;;;0.30;99.90;-1.60;95407.00;;;;5019286;28;20252;-74
2022/11/19 07:57:37;;;;;;;0.20;0.20;;;0.30;99.90;-1.60;95437.00;;;;5021236;28;20200;-75
2022/11/19 08:00:07;;;;;;;0.10;0.10;;;0.30;99.90;-1.40;95460.00;;;;5022164;28;20191;-74
2022/11/19 08:02:43;;;;;;;0.15;0.15;;;0.40;99.90;-1.40;95451.00;;;;5024544;28;20226;-74
2022/11/19 08:05:12;;;;;;;0.10;0.10;;;0.50;99.90;-1.30;95489.00;;;;5019172;28;20200;-74
2022/11/19 08:07:40;;;;;;;0.10;0.10;;;0.60;99.90;-1.20;95427.00;;;;5022077;28;20207;-75
2022/11/19 08:10:10;;;;;;;0.20;0.20;;;0.60;99.90;-1.20;95493.00;;;;5022454;28;20635;-75
2022/11/19 08:12:39;;;;;;;0.10;0.10;;;0.60;99.90;-1.20;95459.00;;;;5013267;28;20224;-75
2022/11/19 08:15:09;;;;;;;0.10;0.10;;;0.60;99.90;-1.20;95464.00;;;;5031477;28;20206;-75
2022/11/19 08:20:24;;;;;;;0.10;0.10;;;0.60;99.90;-1.20;95477.00;;;;5021081;28;20197;-75
2022/11/19 08:22:52;;;;;;;0.20;0.20;;;0.70;99.90;-1.20;95404.00;;;;5028427;28;20613;-75
2022/11/19 08:25:20;;;;;;;0.20;0.20;;;0.70;99.90;-1.20;95454.00;;;;5032096;28;20214;-76
2022/11/19 08:27:48;;;;;;;0.10;0.10;;;0.70;99.90;-1.10;95439.00;;;;5015272;28;20630;-75
2022/11/19 08:30:24;;;;;;;0.10;0.10;;;0.70;99.90;-1.10;95473.00;;;;5088971;28;20562;-74
2022/11/19 08:32:52;;;;;;;0.20;0.20;;;0.80;99.90;-1.00;95483.00;;;;5064183;28;20222;-75
2022/11/19 08:35:20;;;;;;;0.15;0.15;;;0.80;99.90;-1.10;95512.00;;;;5054102;28;20616;-72
2022/11/19 08:37:50;;;;;;;0.10;0.10;;;0.80;99.90;-1.10;95507.00;;;;5046152;28;20210;-72
2022/11/19 08:40:18;;;;;;;0.13;0.13;;;0.80;99.90;-1.00;95502.00;;;;5048169;28;20210;-71
2022/11/19 08:43:00;;;;;;;0.10;0.10;;;0.90;99.90;-1.00;95515.00;;;;5049038;28;20276;-71
2022/11/19 08:45:33;;;;;;;0.10;0.10;;;0.90;99.90;-1.00;95460.00;;;;5053750;28;20206;-71
2022/11/19 08:48:05;;;;;;;0.10;0.10;;;0.90;99.90;-0.90;95438.00;;;;5047997;28;20199;-71
2022/11/19 08:50:34;;;;;;;0.10;0.10;;;0.90;99.90;-0.90;95472.00;;;;5048170;28;20198;-75
2022/11/19 08:53:05;;;;;;;0.10;0.10;;;0.90;99.90;-0.80;95495.00;;;;5048222;28;20245;-75
2022/11/19 08:55:33;;;;;;;0.10;0.10;;;1.00;99.90;-0.80;95504.00;;;;5048280;28;20661;-75
2022/11/19 08:58:03;;;;;;;0.10;0.10;;;1.00;99.90;-0.70;95484.00;;;;5047134;28;20600;-75
2022/11/19 09:00:35;;;;;;;0.10;0.10;;;1.00;99.90;-1.00;95396.00;;;;5047835;28;20207;-75
2022/11/19 09:03:04;;;;;;;0.10;0.10;;;0.90;99.90;-1.20;95434.00;;;;5047156;28;20218;-75
2022/11/19 09:05:32;;;;;;;0.10;0.10;;;0.80;99.90;-1.30;95463.00;;;;5058897;28;20225;-75
2022/11/19 09:08:00;;;;;;;0.17;0.17;;;0.70;99.90;-1.20;95499.00;;;;5047747;28;21070;-75
2022/11/19 09:10:28;;;;;;;0.10;0.10;;;0.70;99.90;-0.90;95448.00;;;;5048147;28;20712;-75
2022/11/19 09:12:57;;;;;;;0.10;0.10;;;0.90;99.90;-0.80;95503.00;;;;5047415;28;20249;-75
2022/11/19 09:15:25;;;;;;;0.10;0.10;;;1.10;99.90;-0.70;95510.00;;;;5048868;28;20205;-75
2022/11/19 09:17:54;;;;;;;0.10;0.10;;;1.10;99.90;-0.90;95513.00;;;;5046514;28;20338;-75
2022/11/19 09:20:22;;;;;;;0.15;0.15;;;1.10;99.90;-0.90;95499.00;;;;5047862;28;20256;-75
2022/11/19 09:22:51;;;;;;;0.10;0.10;;;1.00;99.90;-0.80;95518.00;;;;5047424;28;20233;-76
2022/11/19 09:25:19;;;;;;;0.10;0.10;;;1.10;99.90;-0.60;95551.00;;;;5048270;28;20206;-75
2022/11/19 09:27:47;;;;;;;0.10;0.10;;;1.20;99.90;-0.60;95528.00;;;;5046902;28;20628;-75
2022/11/19 09:30:15;;;;;;;0.10;0.10;;;1.30;99.90;-0.40;95545.00;;;;5047572;28;20665;-75
2022/11/19 09:32:43;;;;;;;0.13;0.13;;;1.30;99.90;-0.40;95507.00;;;;5041949;28;20272;-75
2022/11/19 09:35:13;;;;;;;0.10;0.10;;;1.30;99.90;-0.40;95564.00;;;;5048013;28;20202;-75
2022/11/19 09:37:41;;;;;;;0.10;0.10;;;1.40;99.90;-0.40;95600.00;;;;5049956;28;20206;-75
2022/11/19 09:40:17;;;;;;;0.10;0.10;;;1.40;99.90;-0.40;95467.00;;;;5053851;28;20206;-75
2022/11/19 09:43:03;;;;;;;0.10;0.10;;;1.40;99.90;-0.30;95448.00;;;;5046186;28;20237;-75
2022/11/19 09:45:48;;;;;;;0.10;0.10;;;1.40;99.90;-0.30;95444.00;;;;5054194;28;20233;-75
2022/11/19 09:48:30;;;;;;;0.10;0.10;;;1.50;99.90;-0.30;95434.00;;;;5039772;28;20198;-75
2022/11/19 09:51:03;;;;;;;0.20;0.20;;;1.40;99.90;-0.40;95462.00;;;;5039515;28;20226;-75
2022/11/19 09:53:41;;;;;;;0.20;0.20;;;1.40;99.90;-0.50;95463.00;;;;5043365;28;20223;-75
2022/11/19 09:56:16;;;;;;;0.10;0.10;;;1.40;99.90;-0.40;95414.00;;;;5045160;28;20198;-75
2022/11/19 09:58:45;;;;;;;0.10;0.10;;;1.40;99.90;-0.40;95410.00;;;;5036500;28;20195;-75
2022/11/19 10:01:16;;;;;;;0.10;0.10;;;1.40;99.90;-0.30;95515.00;;;;5049634;28;20194;-75
2022/11/19 10:03:48;;;;;;;0.10;0.10;;;1.40;99.90;-0.30;95466.00;;;;5034776;28;20226;-75
2022/11/19 10:06:28;;;;;;;0.17;0.17;;;1.50;99.90;-0.30;95541.00;;;;5033612;28;20203;-75
2022/11/19 10:09:25;;;;;;;0.10;0.10;;;1.40;99.90;-0.30;95532.00;;;;5033025;28;20195;-75
2022/11/19 10:12:14;;;;;;;0.10;0.10;;;1.40;99.90;-0.50;95487.00;;;;5033709;28;20249;-75
2022/11/19 10:15:06;;;;;;;0.10;0.10;;;1.40;99.90;-0.40;95547.00;;;;5033848;28;20202;-76
2022/11/19 10:17:49;;;;;;;0.10;0.10;;;1.40;99.90;-0.50;95444.00;;;;5033310;28;20199;-77
2022/11/19 10:20:49;;;;;;;0.17;0.17;;;1.30;99.90;-0.60;95509.00;;;;5034449;28;20214;-76
2022/11/19 10:23:25;;;;;;;0.10;0.10;;;1.30;99.90;-0.40;95454.00;;;;5036271;28;20226;-76
2022/11/19 10:26:02;;;;;;;0.20;0.20;;;1.40;99.90;-0.30;95510.00;;;;5037478;28;20293;-76
2022/11/19 10:28:36;;;;;;;0.10;0.10;;;1.50;99.90;-0.20;95553.00;;;;5033029;28;20576;-75
2022/11/19 10:31:13;;;;;;;0.10;0.10;;;1.50;99.90;-0.30;95478.00;;;;5033394;28;20222;-77
2022/11/19 10:33:51;;;;;;;0.10;0.10;;;1.50;99.90;-0.40;95482.00;;;;5034574;28;20222;-78
2022/11/19 10:36:28;;;;;;;0.10;0.10;;;1.40;99.90;-0.30;95444.00;;;;5042089;28;20207;-75
2022/11/19 10:39:06;;;;;;;0.10;0.10;;;1.50;99.90;-0.20;95482.00;;;;5036827;28;20277;-77
2022/11/19 10:41:44;;;;;;;0.10;0.10;;;1.50;99.90;-0.10;95523.00;;;;5033394;28;20194;-76
2022/11/19 10:44:42;;;;;;;0.10;0.10;;;1.60;99.90;-0.20;95433.00;;;;5035442;28;20226;-76
2022/11/19 10:47:19;;;;;;;0.10;0.10;;;1.60;99.90;-0.70;95377.00;;;;5032557;28;20206;-77
2022/11/19 10:49:53;;;;;;;0.10;0.10;;;1.10;99.90;-0.90;95463.00;;;;5021964;28;20732;-77
2022/11/19 10:52:31;;;;;;;0.10;0.10;;;1.10;99.90;-0.90;95359.00;;;;5030855;28;20195;-78
2022/11/19 10:55:12;;;;;;;0.10;0.10;;;1.00;99.90;-0.90;95419.00;;;;5056818;28;20276;-76
2022/11/19 10:57:42;;;;;;;0.10;0.10;;;0.90;99.90;-1.00;95403.00;;;;5031941;28;20195;-76
2022/11/19 11:00:12;;;;;;;0.10;0.10;;;1.00;99.90;-1.00;95434.00;;;;5032195;28;20643;-76
2022/11/19 11:02:46;;;;;;;0.10;0.10;;;1.00;99.90;-1.10;95414.00;;;;5022058;28;20215;-77
2022/11/19 11:05:18;;;;;;;0.10;0.10;;;0.80;99.90;-1.00;95435.00;;;;5042972;28;20197;-77
2022/11/19 11:07:53;;;;;;;0.10;0.10;;;0.90;99.90;-0.90;95450.00;;;;5034286;28;20191;-77
2022/11/19 11:10:45;;;;;;;0.15;0.15;;;1.00;99.90;-0.90;95471.00;;;;5032201;28;20253;-76
2022/11/19 11:16:19;;;;;;;0.10;0.10;;;1.00;99.90;-0.80;95382.00;;;;5032469;28;20725;-76
2022/11/19 11:18:49;;;;;;;0.10;0.10;;;1.20;99.90;-0.70;95287.00;;;;5031948;28;20736;-76
2022/11/19 11:21:42;;;;;;;0.10;0.10;;;1.20;99.90;-0.50;95430.00;;;;5030894;28;20202;-76
2022/11/19 11:24:12;;;;;;;0.10;0.10;;;1.30;99.90;-0.40;95388.00;;;;5030017;28;20240;-76
2022/11/19 11:26:41;;;;;;;0.13;0.13;;;1.50;99.90;-0.50;95398.00;;;;5012701;28;20214;-76
2022/11/19 11:29:26;;;;;;;0.10;0.10;;;1.30;99.90;-0.50;95421.00;;;;5020446;28;20216;-76
2022/11/19 11:31:54;;;;;;;0.10;0.10;;;1.40;99.90;-0.50;95417.00;;;;5012386;28;20192;-76
2022/11/19 11:34:32;;;;;;;0.10;0.10;;;1.30;99.90;-0.60;95347.00;;;;5030411;28;20265;-76
2022/11/19 11:37:03;;;;;;;0.10;0.10;;;1.20;99.90;-0.70;95424.00;;;;5031553;28;20563;-76
2022/11/19 11:39:36;;;;;;;0.10;0.10;;;1.30;99.90;-0.40;95470.00;;;;5026762;28;20291;-76
2022/11/19 11:42:10;;;;;;;0.10;0.10;;;1.40;99.90;-0.30;95460.00;;;;5031713;28;20279;-76
2022/11/19 11:44:52;;;;;;;0.10;0.10;;;1.50;99.90;-0.50;95468.00;;;;5020980;28;20202;-76
2022/11/19 11:47:24;;;;;;;0.10;0.10;;;1.60;99.90;0.00;95454.00;;;;5021814;28;20198;-76
2022/11/19 11:50:06;;;;;;;0.10;0.10;;;1.80;99.90;0.30;95445.00;;;;5012419;28;20286;-76